createdAt,value
2019-05-11T00:00:05.344Z,7.45
2019-05-11T00:05:07.805Z,10.72
2019-05-11T00:10:09.999Z,9.55
2019-05-11T00:15:12.260Z,10.15
2019-05-11T00:20:14.354Z,11.25
2019-05-11T00:25:16.388Z,12.23
2019-05-11T00:30:18.792Z,8.98
2019-05-11T00:35:20.839Z,10.40
2019-05-11T00:40:22.905Z,8.15
2019-05-11T00:45:25.048Z,10.25
2019-05-11T00:50:38.878Z,10.98
2019-05-11T00:55:31.350Z,12.95
2019-05-11T01:00:33.566Z,9.80
2019-05-11T01:05:35.638Z,11.33
2019-05-11T01:10:42.274Z,11.28
2019-05-11T01:15:41.638Z,10.38
2019-05-11T01:20:43.959Z,10.78
2019-05-11T01:25:46.468Z,9.65
2019-05-11T01:30:48.599Z,10.32
2019-05-11T01:35:51.250Z,10.00
2019-05-11T01:40:58.704Z,9.73
2019-05-11T01:45:57.439Z,11.88
2019-05-11T01:50:59.522Z,11.70
2019-05-11T01:56:01.821Z,12.30
2019-05-11T02:01:03.967Z,14.45
2019-05-11T02:06:06.085Z,12.23
2019-05-11T02:11:15.725Z,13.72
2019-05-11T02:16:12.063Z,14.50
2019-05-11T02:21:14.170Z,14.55
2019-05-11T02:26:16.328Z,13.18
2019-05-11T02:31:18.506Z,15.63
2019-05-11T02:36:20.632Z,14.83
2019-05-11T02:41:35.395Z,14.58
2019-05-11T02:46:26.771Z,13.88
2019-05-11T02:51:28.940Z,14.35
2019-05-11T02:56:31.009Z,19.02
2019-05-11T03:01:33.114Z,15.95
2019-05-11T03:06:35.206Z,14.55
2019-05-11T03:11:54.287Z,14.50
2019-05-11T03:16:41.410Z,11.93
2019-05-11T03:21:43.462Z,14.33
2019-05-11T03:26:45.543Z,13.03
2019-05-11T03:31:47.600Z,13.30
2019-05-11T03:36:49.692Z,11.12
2019-05-11T03:41:51.806Z,13.90
2019-05-11T03:46:53.951Z,12.25
2019-05-11T03:51:56.002Z,13.32
2019-05-11T03:56:58.367Z,14.38
2019-05-11T04:02:00.486Z,11.03
2019-05-11T04:07:02.657Z,12.53
2019-05-11T04:12:04.713Z,9.95
2019-05-11T04:17:06.823Z,8.88
2019-05-11T04:22:09.278Z,10.13
2019-05-11T04:27:11.403Z,11.63
2019-05-11T04:32:13.511Z,9.33
2019-05-11T04:37:15.649Z,10.65
2019-05-11T04:42:17.770Z,7.83
2019-05-11T04:47:19.966Z,8.33
2019-05-11T04:52:22.040Z,7.20
2019-05-11T04:57:24.349Z,8.48
2019-05-11T05:02:27.359Z,8.50
2019-05-11T05:07:30.195Z,10.50
2019-05-11T05:12:34.332Z,10.13
2019-05-11T05:17:36.507Z,12.68
2019-05-11T05:22:38.672Z,11.28
2019-05-11T05:27:40.831Z,9.98
2019-05-11T05:32:42.943Z,11.85
2019-05-11T05:37:45.106Z,10.48
2019-05-11T05:42:47.208Z,10.65
2019-05-11T05:47:49.658Z,10.43
2019-05-11T05:52:51.710Z,12.15
2019-05-11T05:57:53.816Z,10.72
2019-05-11T06:02:55.932Z,11.12
2019-05-11T06:07:58.106Z,11.97
2019-05-11T06:13:00.291Z,10.98
2019-05-11T06:18:02.368Z,10.68
2019-05-11T06:23:04.515Z,9.00
2019-05-11T06:28:06.631Z,9.08
2019-05-11T06:33:08.695Z,11.08
2019-05-11T06:38:11.347Z,8.40
2019-05-11T06:43:13.419Z,9.08
2019-05-11T06:48:15.564Z,7.30
2019-05-11T06:53:17.800Z,8.95
2019-05-11T06:58:19.904Z,8.65
2019-05-11T07:03:22.062Z,6.72
2019-05-11T07:08:24.250Z,9.05
2019-05-11T07:13:26.622Z,7.37
2019-05-11T07:18:28.766Z,9.18
2019-05-11T07:23:31.231Z,10.93
2019-05-11T07:28:33.440Z,8.73
2019-05-11T07:33:37.865Z,10.15
2019-05-11T07:38:39.521Z,9.58
2019-05-11T07:43:41.602Z,7.62
2019-05-11T07:48:47.986Z,7.60
2019-05-11T07:53:50.237Z,10.48
2019-05-11T07:58:52.328Z,9.30
2019-05-11T08:03:54.485Z,9.25
2019-05-11T08:08:58.788Z,7.92
2019-05-11T08:14:00.755Z,8.23
2019-05-11T08:19:06.829Z,11.97
2019-05-11T08:24:09.144Z,10.05
2019-05-11T08:29:11.132Z,11.30
2019-05-11T08:34:13.227Z,10.78
2019-05-11T08:39:15.376Z,9.63
2019-05-11T08:44:18.175Z,11.25
2019-05-11T08:49:20.585Z,9.13
2019-05-11T08:54:22.982Z,9.95
2019-05-11T08:59:25.034Z,10.58
2019-05-11T09:04:28.874Z,8.93
2019-05-11T09:09:31.612Z,10.13
2019-05-11T09:14:33.941Z,10.60
2019-05-11T09:19:36.024Z,10.70
2019-05-11T09:24:38.758Z,9.18
2019-05-11T09:29:41.021Z,8.20
2019-05-11T09:34:43.128Z,8.00
2019-05-11T09:39:47.725Z,8.93
2019-05-11T09:44:49.541Z,10.08
2019-05-11T09:49:51.972Z,6.75
2019-05-11T09:54:54.095Z,5.33
2019-05-11T09:59:58.238Z,7.45
2019-05-11T10:05:00.320Z,6.60
2019-05-11T10:10:02.630Z,5.15
2019-05-11T10:15:08.128Z,4.75
2019-05-11T10:20:10.106Z,4.30
2019-05-11T10:25:12.106Z,6.00
2019-05-11T10:30:14.460Z,4.33
2019-05-11T10:35:18.429Z,3.67
2019-05-11T10:40:22.112Z,3.58
2019-05-11T10:45:25.721Z,5.12
2019-05-11T10:50:28.759Z,4.37
2019-05-11T10:55:31.161Z,3.83
2019-05-11T11:00:34.384Z,4.00
2019-05-11T11:05:38.422Z,4.55
2019-05-11T11:10:40.510Z,3.65
2019-05-11T11:15:42.584Z,3.90
2019-05-11T11:20:44.611Z,6.30
2019-05-11T11:25:48.186Z,5.45
2019-05-11T11:30:50.741Z,3.98
2019-05-11T11:35:52.817Z,4.72
2019-05-11T11:40:54.903Z,4.97
2019-05-11T11:45:58.032Z,3.65
2019-05-11T11:51:00.453Z,4.05
2019-05-11T11:56:03.345Z,3.98
2019-05-11T12:01:07.914Z,3.40
2019-05-11T12:06:09.531Z,3.10
2019-05-11T12:11:11.831Z,3.75
2019-05-11T12:16:13.937Z,2.87
2019-05-11T12:21:18.286Z,3.30
2019-05-11T12:26:20.084Z,3.10
2019-05-11T12:31:22.511Z,5.58
2019-05-11T12:36:24.593Z,3.92
2019-05-11T12:41:28.049Z,4.10
2019-05-11T12:46:30.224Z,4.53
2019-05-11T12:51:32.324Z,3.80
2019-05-11T12:56:35.073Z,3.52
2019-05-11T13:01:38.184Z,4.05
2019-05-11T13:06:40.507Z,3.35
2019-05-11T13:11:42.643Z,3.27
2019-05-11T13:16:48.305Z,3.30
2019-05-11T13:21:51.873Z,4.03
2019-05-11T13:26:54.098Z,3.00
2019-05-11T13:31:56.147Z,3.80
2019-05-11T13:36:58.214Z,2.95
2019-05-11T13:42:00.273Z,2.75
2019-05-11T13:47:02.374Z,4.42
2019-05-11T13:52:04.550Z,3.87
2019-05-11T13:57:08.083Z,3.05
2019-05-11T14:02:11.034Z,3.52
2019-05-11T14:07:13.277Z,3.87
2019-05-11T14:12:15.341Z,3.95
2019-05-11T14:17:18.667Z,2.80
2019-05-11T14:22:21.050Z,3.35
2019-05-11T14:27:23.161Z,3.60
2019-05-11T14:32:25.247Z,3.47
2019-05-11T14:37:28.564Z,3.30
2019-05-11T14:42:30.756Z,5.28
2019-05-11T14:47:33.145Z,2.87
2019-05-11T14:52:35.231Z,5.15
2019-05-11T14:57:39.558Z,4.75
2019-05-11T15:02:49.172Z,5.12
2019-05-11T15:07:53.553Z,5.90
2019-05-11T15:12:55.667Z,4.78
2019-05-11T15:17:58.311Z,5.55
2019-05-11T15:23:00.406Z,5.40
2019-05-11T15:28:02.495Z,6.35
2019-05-11T15:33:04.530Z,7.47
2019-05-11T15:38:08.715Z,10.23
2019-05-11T15:43:11.059Z,7.20
2019-05-11T15:48:13.681Z,9.38
2019-05-11T15:53:17.824Z,7.70
2019-05-11T15:58:22.215Z,9.98
2019-05-11T16:03:24.405Z,12.53
2019-05-11T16:08:28.376Z,6.30
2019-05-11T16:13:30.589Z,6.60
2019-05-11T16:18:32.694Z,7.65
2019-05-11T16:23:34.782Z,6.65
2019-05-11T16:28:38.394Z,5.95
2019-05-11T16:33:40.682Z,6.60
2019-05-11T16:38:42.771Z,6.50
2019-05-11T16:43:44.868Z,8.08
2019-05-11T16:48:47.052Z,7.08
2019-05-11T16:53:49.198Z,6.20
2019-05-11T16:58:54.494Z,8.35
2019-05-11T17:03:57.708Z,5.30
2019-05-11T17:08:59.318Z,5.25
2019-05-11T17:14:01.758Z,5.97
2019-05-11T17:19:04.001Z,6.05
2019-05-11T17:24:10.875Z,4.25
2019-05-11T17:29:12.991Z,5.42
2019-05-11T17:34:17.832Z,4.33
2019-05-11T17:39:22.471Z,4.05
2019-05-11T17:44:25.525Z,4.15
2019-05-11T17:49:27.779Z,6.37
2019-05-11T17:54:29.931Z,5.03
2019-05-11T17:59:32.036Z,3.58
2019-05-11T18:04:34.328Z,5.17
2019-05-11T18:09:38.064Z,3.77
2019-05-11T18:14:40.212Z,4.95
2019-05-11T18:19:42.529Z,4.78
2019-05-11T18:24:44.592Z,5.65
2019-05-11T18:29:48.567Z,4.55
2019-05-11T18:34:50.740Z,6.95
2019-05-11T18:39:52.938Z,5.12
2019-05-11T18:44:58.010Z,5.17
2019-05-11T18:49:59.480Z,6.92
2019-05-11T18:55:01.641Z,4.80
2019-05-11T19:00:08.299Z,5.08
2019-05-11T19:05:12.526Z,5.55
2019-05-11T19:10:14.794Z,6.37
2019-05-11T19:15:18.745Z,6.65
2019-05-11T19:20:21.025Z,5.75
2019-05-11T19:25:24.350Z,8.50
2019-05-11T19:30:27.735Z,8.58
2019-05-11T19:35:31.330Z,9.93
2019-05-11T19:40:33.424Z,9.80
2019-05-11T19:45:38.180Z,10.65
2019-05-11T19:50:41.189Z,9.48
2019-05-11T19:55:43.619Z,10.35
2019-05-11T20:00:45.680Z,11.25
2019-05-11T20:05:48.541Z,14.30
2019-05-11T20:10:50.773Z,12.28
2019-05-11T20:15:52.813Z,11.80
2019-05-11T20:20:54.841Z,10.23
2019-05-11T20:26:01.537Z,18.02
2019-05-11T20:31:03.677Z,8.75
2019-05-11T20:36:05.797Z,9.55
2019-05-11T20:41:08.445Z,9.88
2019-05-11T20:46:10.594Z,11.33
2019-05-11T20:51:12.688Z,28.60
2019-05-11T20:56:15.052Z,9.98
2019-05-11T21:01:21.619Z,13.80
2019-05-11T21:06:23.860Z,16.12
2019-05-11T21:11:25.973Z,9.25
2019-05-11T21:16:28.038Z,9.73
2019-05-11T21:21:30.514Z,13.40
2019-05-11T21:26:32.712Z,11.50
2019-05-11T21:31:37.712Z,16.65
2019-05-11T21:36:39.248Z,13.80
2019-05-11T21:41:41.685Z,11.63
2019-05-11T21:46:44.106Z,15.25
2019-05-11T21:51:48.147Z,12.40
2019-05-11T21:56:50.519Z,15.18
2019-05-11T22:01:52.656Z,15.23
2019-05-11T22:06:54.829Z,12.63
2019-05-11T22:11:56.985Z,14.65
2019-05-11T22:17:02.377Z,17.42
2019-05-11T22:22:17.326Z,12.80
2019-05-11T22:27:08.303Z,17.37
2019-05-11T22:32:10.401Z,15.15
2019-05-11T22:37:12.500Z,16.27
2019-05-11T22:42:14.979Z,12.47
2019-05-11T22:47:17.820Z,14.90
2019-05-11T22:52:32.975Z,17.62
2019-05-11T22:57:24.167Z,15.00
2019-05-11T23:02:28.553Z,14.87
2019-05-11T23:07:30.640Z,16.25
2019-05-11T23:12:32.692Z,15.90
2019-05-11T23:17:35.013Z,20.30
2019-05-11T23:22:56.056Z,16.12
2019-05-11T23:27:51.234Z,14.43
2019-05-11T23:32:53.369Z,15.85
2019-05-11T23:37:57.606Z,14.35
2019-05-11T23:42:59.477Z,16.87
2019-05-11T23:48:01.584Z,14.30
2019-05-11T23:53:06.484Z,11.85
2019-05-11T23:58:08.366Z,17.70
